sensor_id;sensor_type;location;lat;lon;timestamp;P1;durP1;ratioP1;P2;durP2;ratioP2
33285;SDS011;19656;50.096;20.014;2023-02-01T00:03:57;7.90;;;3.60;;
33285;SDS011;19656;50.096;20.014;2023-02-01T00:09:01;6.40;;;3.70;;
33285;SDS011;19656;50.096;20.014;2023-02-01T00:14:05;5.00;;;3.10;;
33285;SDS011;19656;50.096;20.014;2023-02-01T00:19:11;6.50;;;3.70;;
33285;SDS011;19656;50.096;20.014;2023-02-01T00:24:17;5.40;;;3.50;;
33285;SDS011;19656;50.096;20.014;2023-02-01T00:34:35;6.10;;;3.40;;
33285;SDS011;19656;50.096;20.014;2023-02-01T00:39:38;5.00;;;3.50;;
33285;SDS011;19656;50.096;20.014;2023-02-01T00:44:42;8.60;;;3.50;;
33285;SDS011;19656;50.096;20.014;2023-02-01T00:49:45;5.90;;;3.10;;
33285;SDS011;19656;50.096;20.014;2023-02-01T00:54:55;5.50;;;2.90;;
33285;SDS011;19656;50.096;20.014;2023-02-01T00:59:58;5.50;;;3.10;;
33285;SDS011;19656;50.096;20.014;2023-02-01T01:05:18;5.80;;;3.60;;
33285;SDS011;19656;50.096;20.014;2023-02-01T01:10:22;5.40;;;3.00;;
33285;SDS011;19656;50.096;20.014;2023-02-01T01:21:07;6.50;;;3.60;;
33285;SDS011;19656;50.096;20.014;2023-02-01T01:26:16;6.90;;;3.50;;
33285;SDS011;19656;50.096;20.014;2023-02-01T01:31:26;5.50;;;3.10;;
33285;SDS011;19656;50.096;20.014;2023-02-01T01:36:31;6.80;;;3.60;;
33285;SDS011;19656;50.096;20.014;2023-02-01T01:41:41;5.00;;;3.10;;
33285;SDS011;19656;50.096;20.014;2023-02-01T01:46:52;5.20;;;2.90;;
33285;SDS011;19656;50.096;20.014;2023-02-01T01:51:56;4.50;;;2.10;;
33285;SDS011;19656;50.096;20.014;2023-02-01T01:57:06;3.20;;;1.80;;
33285;SDS011;19656;50.096;20.014;2023-02-01T02:02:14;2.30;;;1.50;;
33285;SDS011;19656;50.096;20.014;2023-02-01T02:07:21;2.90;;;1.80;;
33285;SDS011;19656;50.096;20.014;2023-02-01T02:12:28;3.70;;;2.10;;
33285;SDS011;19656;50.096;20.014;2023-02-01T02:34:10;4.70;;;2.00;;
33285;SDS011;19656;50.096;20.014;2023-02-01T02:55:46;10.10;;;2.70;;
33285;SDS011;19656;50.096;20.014;2023-02-01T03:00:53;8.30;;;2.60;;
33285;SDS011;19656;50.096;20.014;2023-02-01T03:06:17;6.60;;;2.00;;
33285;SDS011;19656;50.096;20.014;2023-02-01T03:11:23;6.90;;;2.10;;
33285;SDS011;19656;50.096;20.014;2023-02-01T03:16:51;7.90;;;2.00;;
33285;SDS011;19656;50.096;20.014;2023-02-01T03:22:05;10.20;;;2.10;;
33285;SDS011;19656;50.096;20.014;2023-02-01T03:27:27;9.10;;;2.10;;
33285;SDS011;19656;50.096;20.014;2023-02-01T03:32:44;7.80;;;1.70;;
33285;SDS011;19656;50.096;20.014;2023-02-01T03:43:24;6.30;;;1.80;;
33285;SDS011;19656;50.096;20.014;2023-02-01T03:48:32;7.30;;;1.10;;
33285;SDS011;19656;50.096;20.014;2023-02-01T03:53:38;8.40;;;1.90;;
33285;SDS011;19656;50.096;20.014;2023-02-01T03:58:46;5.70;;;1.60;;
33285;SDS011;19656;50.096;20.014;2023-02-01T04:04:05;13.20;;;2.00;;
33285;SDS011;19656;50.096;20.014;2023-02-01T04:09:09;7.00;;;2.00;;
33285;SDS011;19656;50.096;20.014;2023-02-01T04:14:12;6.20;;;1.90;;
33285;SDS011;19656;50.096;20.014;2023-02-01T04:19:23;7.50;;;1.90;;
33285;SDS011;19656;50.096;20.014;2023-02-01T04:24:26;8.10;;;1.90;;
33285;SDS011;19656;50.096;20.014;2023-02-01T04:29:30;7.10;;;1.90;;
33285;SDS011;19656;50.096;20.014;2023-02-01T04:34:33;5.60;;;1.80;;
33285;SDS011;19656;50.096;20.014;2023-02-01T04:39:37;4.70;;;1.50;;
33285;SDS011;19656;50.096;20.014;2023-02-01T04:44:40;5.60;;;1.60;;
33285;SDS011;19656;50.096;20.014;2023-02-01T04:49:44;6.00;;;1.60;;
33285;SDS011;19656;50.096;20.014;2023-02-01T04:54:48;4.50;;;1.50;;
33285;SDS011;19656;50.096;20.014;2023-02-01T04:59:51;7.80;;;1.60;;
33285;SDS011;19656;50.096;20.014;2023-02-01T05:04:54;6.40;;;1.90;;
33285;SDS011;19656;50.096;20.014;2023-02-01T05:09:58;5.70;;;1.80;;
33285;SDS011;19656;50.096;20.014;2023-02-01T05:15:02;4.50;;;1.50;;
33285;SDS011;19656;50.096;20.014;2023-02-01T05:20:06;6.60;;;2.20;;
33285;SDS011;19656;50.096;20.014;2023-02-01T05:25:10;4.70;;;2.00;;
33285;SDS011;19656;50.096;20.014;2023-02-01T05:30:14;5.60;;;2.00;;
33285;SDS011;19656;50.096;20.014;2023-02-01T05:35:18;3.70;;;1.80;;
33285;SDS011;19656;50.096;20.014;2023-02-01T05:40:22;5.40;;;1.80;;
33285;SDS011;19656;50.096;20.014;2023-02-01T05:45:26;4.00;;;2.00;;
33285;SDS011;19656;50.096;20.014;2023-02-01T05:55:43;5.80;;;2.40;;
33285;SDS011;19656;50.096;20.014;2023-02-01T06:00:47;5.30;;;2.40;;
33285;SDS011;19656;50.096;20.014;2023-02-01T06:05:50;4.20;;;2.10;;
33285;SDS011;19656;50.096;20.014;2023-02-01T06:10:57;9.70;;;2.60;;
33285;SDS011;19656;50.096;20.014;2023-02-01T06:16:05;8.50;;;2.90;;
33285;SDS011;19656;50.096;20.014;2023-02-01T06:21:10;6.80;;;2.80;;
33285;SDS011;19656;50.096;20.014;2023-02-01T06:26:15;5.90;;;2.70;;
33285;SDS011;19656;50.096;20.014;2023-02-01T06:31:20;8.20;;;3.40;;
33285;SDS011;19656;50.096;20.014;2023-02-01T06:36:23;8.80;;;2.90;;
33285;SDS011;19656;50.096;20.014;2023-02-01T06:41:27;7.70;;;3.10;;
33285;SDS011;19656;50.096;20.014;2023-02-01T06:46:31;8.50;;;3.60;;
33285;SDS011;19656;50.096;20.014;2023-02-01T06:51:35;9.70;;;3.90;;
33285;SDS011;19656;50.096;20.014;2023-02-01T06:56:38;8.60;;;3.70;;
33285;SDS011;19656;50.096;20.014;2023-02-01T07:01:41;9.70;;;3.50;;
33285;SDS011;19656;50.096;20.014;2023-02-01T07:06:45;8.50;;;3.50;;
33285;SDS011;19656;50.096;20.014;2023-02-01T07:11:48;9.50;;;4.00;;
33285;SDS011;19656;50.096;20.014;2023-02-01T07:16:51;8.80;;;3.70;;
33285;SDS011;19656;50.096;20.014;2023-02-01T07:21:55;10.60;;;4.10;;
33285;SDS011;19656;50.096;20.014;2023-02-01T07:26:58;9.00;;;3.40;;
33285;SDS011;19656;50.096;20.014;2023-02-01T07:32:01;9.00;;;3.50;;
33285;SDS011;19656;50.096;20.014;2023-02-01T07:37:05;9.10;;;3.20;;
33285;SDS011;19656;50.096;20.014;2023-02-01T07:42:09;7.90;;;2.70;;
33285;SDS011;19656;50.096;20.014;2023-02-01T07:47:12;12.60;;;3.70;;
33285;SDS011;19656;50.096;20.014;2023-02-01T08:03:39;14.70;;;3.90;;
33285;SDS011;19656;50.096;20.014;2023-02-01T08:08:43;10.20;;;3.40;;
33285;SDS011;19656;50.096;20.014;2023-02-01T08:13:51;11.20;;;3.20;;
33285;SDS011;19656;50.096;20.014;2023-02-01T08:26:43;6.30;;;2.80;;
33285;SDS011;19656;50.096;20.014;2023-02-01T08:39:21;11.30;;;3.50;;
33285;SDS011;19656;50.096;20.014;2023-02-01T08:50:48;13.80;;;3.80;;
33285;SDS011;19656;50.096;20.014;2023-02-01T08:55:52;9.40;;;3.70;;
33285;SDS011;19656;50.096;20.014;2023-02-01T09:00:57;10.30;;;4.00;;
33285;SDS011;19656;50.096;20.014;2023-02-01T09:06:21;11.30;;;3.50;;
33285;SDS011;19656;50.096;20.014;2023-02-01T09:25:10;8.70;;;3.60;;
33285;SDS011;19656;50.096;20.014;2023-02-01T09:54:11;9.00;;;3.80;;
33285;SDS011;19656;50.096;20.014;2023-02-01T10:24:36;8.40;;;3.20;;
33285;SDS011;19656;50.096;20.014;2023-02-01T10:29:47;10.30;;;3.00;;
33285;SDS011;19656;50.096;20.014;2023-02-01T10:34:59;9.20;;;2.90;;
33285;SDS011;19656;50.096;20.014;2023-02-01T11:36:23;8.60;;;3.40;;
33285;SDS011;19656;50.096;20.014;2023-02-01T11:41:30;8.30;;;3.40;;
33285;SDS011;19656;50.096;20.014;2023-02-01T11:46:35;6.60;;;2.80;;
33285;SDS011;19656;50.096;20.014;2023-02-01T12:07:49;8.00;;;3.20;;
33285;SDS011;19656;50.096;20.014;2023-02-01T13:02:14;7.30;;;2.80;;
33285;SDS011;19656;50.096;20.014;2023-02-01T13:07:34;10.20;;;3.80;;
33285;SDS011;19656;50.096;20.014;2023-02-01T13:12:47;7.00;;;3.50;;
33285;SDS011;19656;50.096;20.014;2023-02-01T13:17:57;7.80;;;3.40;;
33285;SDS011;19656;50.096;20.014;2023-02-01T13:23:48;8.20;;;3.40;;
33285;SDS011;19656;50.096;20.014;2023-02-01T13:33:58;9.90;;;4.00;;
33285;SDS011;19656;50.096;20.014;2023-02-01T13:44:39;11.00;;;3.70;;
33285;SDS011;19656;50.096;20.014;2023-02-01T13:49:47;9.40;;;3.60;;
33285;SDS011;19656;50.096;20.014;2023-02-01T13:55:01;8.90;;;3.40;;
33285;SDS011;19656;50.096;20.014;2023-02-01T14:10:57;8.30;;;3.50;;
33285;SDS011;19656;50.096;20.014;2023-02-01T14:37:29;9.20;;;4.30;;
33285;SDS011;19656;50.096;20.014;2023-02-01T14:47:46;5.60;;;3.00;;
33285;SDS011;19656;50.096;20.014;2023-02-01T14:58:18;8.20;;;3.40;;
33285;SDS011;19656;50.096;20.014;2023-02-01T15:03:40;6.30;;;3.10;;
33285;SDS011;19656;50.096;20.014;2023-02-01T15:14:25;7.80;;;3.60;;
33285;SDS011;19656;50.096;20.014;2023-02-01T15:19:29;4.60;;;2.70;;
33285;SDS011;19656;50.096;20.014;2023-02-01T15:24:33;4.70;;;2.50;;
33285;SDS011;19656;50.096;20.014;2023-02-01T15:29:37;4.70;;;2.60;;
33285;SDS011;19656;50.096;20.014;2023-02-01T15:34:46;4.80;;;2.40;;
33285;SDS011;19656;50.096;20.014;2023-02-01T15:45:29;6.10;;;3.10;;
33285;SDS011;19656;50.096;20.014;2023-02-01T15:50:35;5.80;;;2.90;;
33285;SDS011;19656;50.096;20.014;2023-02-01T15:55:43;5.80;;;3.50;;
33285;SDS011;19656;50.096;20.014;2023-02-01T16:00:59;5.50;;;3.20;;
33285;SDS011;19656;50.096;20.014;2023-02-01T16:06:09;7.30;;;3.20;;
33285;SDS011;19656;50.096;20.014;2023-02-01T16:11:22;7.30;;;4.10;;
33285;SDS011;19656;50.096;20.014;2023-02-01T16:16:33;6.90;;;3.70;;
33285;SDS011;19656;50.096;20.014;2023-02-01T16:21:37;7.00;;;4.00;;
33285;SDS011;19656;50.096;20.014;2023-02-01T16:26:43;7.10;;;4.60;;
33285;SDS011;19656;50.096;20.014;2023-02-01T16:31:46;8.50;;;4.60;;
33285;SDS011;19656;50.096;20.014;2023-02-01T16:36:52;8.90;;;4.50;;
33285;SDS011;19656;50.096;20.014;2023-02-01T16:41:58;7.00;;;4.10;;
33285;SDS011;19656;50.096;20.014;2023-02-01T16:47:09;7.90;;;4.70;;
33285;SDS011;19656;50.096;20.014;2023-02-01T16:52:17;6.40;;;4.10;;
33285;SDS011;19656;50.096;20.014;2023-02-01T16:57:22;6.60;;;4.50;;
33285;SDS011;19656;50.096;20.014;2023-02-01T17:02:26;9.60;;;4.90;;
33285;SDS011;19656;50.096;20.014;2023-02-01T17:07:30;9.00;;;4.90;;
33285;SDS011;19656;50.096;20.014;2023-02-01T17:12:34;8.40;;;4.90;;
33285;SDS011;19656;50.096;20.014;2023-02-01T17:17:39;7.70;;;4.50;;
33285;SDS011;19656;50.096;20.014;2023-02-01T17:27:48;8.90;;;5.00;;
33285;SDS011;19656;50.096;20.014;2023-02-01T17:32:51;9.80;;;5.90;;
33285;SDS011;19656;50.096;20.014;2023-02-01T17:37:55;10.10;;;5.70;;
33285;SDS011;19656;50.096;20.014;2023-02-01T17:42:59;9.80;;;5.90;;
33285;SDS011;19656;50.096;20.014;2023-02-01T17:48:03;10.60;;;5.40;;
33285;SDS011;19656;50.096;20.014;2023-02-01T17:53:09;10.00;;;5.70;;
33285;SDS011;19656;50.096;20.014;2023-02-01T17:58:14;8.00;;;4.90;;
33285;SDS011;19656;50.096;20.014;2023-02-01T18:03:22;9.20;;;5.60;;
33285;SDS011;19656;50.096;20.014;2023-02-01T18:08:27;10.60;;;5.50;;
33285;SDS011;19656;50.096;20.014;2023-02-01T18:13:32;9.20;;;5.90;;
33285;SDS011;19656;50.096;20.014;2023-02-01T18:18:36;10.80;;;7.10;;
33285;SDS011;19656;50.096;20.014;2023-02-01T18:23:40;9.10;;;6.40;;
33285;SDS011;19656;50.096;20.014;2023-02-01T18:28:44;11.70;;;7.40;;
33285;SDS011;19656;50.096;20.014;2023-02-01T18:33:48;14.50;;;6.70;;
33285;SDS011;19656;50.096;20.014;2023-02-01T18:38:53;11.90;;;7.20;;
33285;SDS011;19656;50.096;20.014;2023-02-01T18:43:59;12.40;;;7.20;;
33285;SDS011;19656;50.096;20.014;2023-02-01T18:49:03;12.90;;;7.10;;
33285;SDS011;19656;50.096;20.014;2023-02-01T18:54:07;14.00;;;6.30;;
33285;SDS011;19656;50.096;20.014;2023-02-01T18:59:12;12.00;;;6.20;;
33285;SDS011;19656;50.096;20.014;2023-02-01T19:04:16;11.20;;;5.60;;
33285;SDS011;19656;50.096;20.014;2023-02-01T19:09:28;12.10;;;5.60;;
33285;SDS011;19656;50.096;20.014;2023-02-01T19:14:34;9.60;;;5.00;;
33285;SDS011;19656;50.096;20.014;2023-02-01T19:19:37;12.60;;;5.70;;
33285;SDS011;19656;50.096;20.014;2023-02-01T19:31:50;12.10;;;6.40;;
33285;SDS011;19656;50.096;20.014;2023-02-01T19:36:54;12.00;;;7.20;;
33285;SDS011;19656;50.096;20.014;2023-02-01T19:41:57;14.90;;;6.90;;
33285;SDS011;19656;50.096;20.014;2023-02-01T19:47:01;13.90;;;7.10;;
33285;SDS011;19656;50.096;20.014;2023-02-01T19:52:05;17.10;;;7.50;;
33285;SDS011;19656;50.096;20.014;2023-02-01T19:57:08;18.60;;;8.40;;
33285;SDS011;19656;50.096;20.014;2023-02-01T20:02:13;16.00;;;8.30;;
33285;SDS011;19656;50.096;20.014;2023-02-01T20:07:17;14.20;;;8.20;;
33285;SDS011;19656;50.096;20.014;2023-02-01T20:12:21;15.60;;;7.20;;
33285;SDS011;19656;50.096;20.014;2023-02-01T20:23:00;16.10;;;7.30;;
33285;SDS011;19656;50.096;20.014;2023-02-01T20:28:05;12.70;;;6.40;;
33285;SDS011;19656;50.096;20.014;2023-02-01T20:33:08;13.40;;;7.00;;
33285;SDS011;19656;50.096;20.014;2023-02-01T20:38:12;14.40;;;6.30;;
33285;SDS011;19656;50.096;20.014;2023-02-01T20:43:16;13.20;;;6.60;;
33285;SDS011;19656;50.096;20.014;2023-02-01T20:48:20;13.50;;;6.60;;
33285;SDS011;19656;50.096;20.014;2023-02-01T20:53:24;14.80;;;6.80;;
33285;SDS011;19656;50.096;20.014;2023-02-01T20:58:29;13.90;;;6.20;;
33285;SDS011;19656;50.096;20.014;2023-02-01T21:03:33;14.20;;;6.90;;
33285;SDS011;19656;50.096;20.014;2023-02-01T21:08:37;13.60;;;6.70;;
33285;SDS011;19656;50.096;20.014;2023-02-01T21:13:41;12.90;;;6.60;;
33285;SDS011;19656;50.096;20.014;2023-02-01T21:18:52;11.90;;;6.10;;
33285;SDS011;19656;50.096;20.014;2023-02-01T21:23:56;12.60;;;5.90;;
33285;SDS011;19656;50.096;20.014;2023-02-01T21:28:59;14.20;;;6.00;;
33285;SDS011;19656;50.096;20.014;2023-02-01T21:34:03;9.50;;;4.80;;
33285;SDS011;19656;50.096;20.014;2023-02-01T21:39:08;9.30;;;4.70;;
33285;SDS011;19656;50.096;20.014;2023-02-01T21:44:13;10.40;;;4.70;;
33285;SDS011;19656;50.096;20.014;2023-02-01T21:49:17;9.50;;;4.50;;
33285;SDS011;19656;50.096;20.014;2023-02-01T21:54:20;10.70;;;4.50;;
33285;SDS011;19656;50.096;20.014;2023-02-01T21:59:23;9.10;;;3.80;;
33285;SDS011;19656;50.096;20.014;2023-02-01T22:04:27;7.20;;;3.50;;
33285;SDS011;19656;50.096;20.014;2023-02-01T22:09:30;8.70;;;3.80;;
33285;SDS011;19656;50.096;20.014;2023-02-01T22:14:33;7.60;;;3.30;;
33285;SDS011;19656;50.096;20.014;2023-02-01T22:19:37;5.60;;;3.00;;
33285;SDS011;19656;50.096;20.014;2023-02-01T22:24:41;7.20;;;3.30;;
33285;SDS011;19656;50.096;20.014;2023-02-01T22:29:45;8.20;;;3.00;;
33285;SDS011;19656;50.096;20.014;2023-02-01T22:34:48;8.10;;;3.30;;
33285;SDS011;19656;50.096;20.014;2023-02-01T22:39:51;6.90;;;2.70;;
33285;SDS011;19656;50.096;20.014;2023-02-01T22:44:57;6.80;;;3.00;;
33285;SDS011;19656;50.096;20.014;2023-02-01T22:56:13;7.60;;;3.10;;
33285;SDS011;19656;50.096;20.014;2023-02-01T23:01:18;9.30;;;3.70;;
33285;SDS011;19656;50.096;20.014;2023-02-01T23:06:22;6.60;;;3.40;;
33285;SDS011;19656;50.096;20.014;2023-02-01T23:11:25;9.30;;;3.80;;
33285;SDS011;19656;50.096;20.014;2023-02-01T23:16:30;11.30;;;4.30;;
33285;SDS011;19656;50.096;20.014;2023-02-01T23:21:34;8.40;;;3.60;;
33285;SDS011;19656;50.096;20.014;2023-02-01T23:26:38;8.90;;;3.90;;
33285;SDS011;19656;50.096;20.014;2023-02-01T23:31:41;7.90;;;3.70;;
33285;SDS011;19656;50.096;20.014;2023-02-01T23:36:45;8.30;;;3.80;;
33285;SDS011;19656;50.096;20.014;2023-02-01T23:41:48;9.50;;;4.00;;
33285;SDS011;19656;50.096;20.014;2023-02-01T23:46:52;9.30;;;3.60;;
33285;SDS011;19656;50.096;20.014;2023-02-01T23:57:31;7.00;;;3.10;;
